<?xml version='1.0' encoding='UTF-8'?><gpx version="1.1" creator="JPX - https://github.com/jenetics/jpx" xmlns="http://www.topografix.com/GPX/1/1"><trk><trkseg><trkpt lat="44.914135" lon="7.277595"><ele>917.0</ele><time>2026-03-29T10:31:52.953Z</time></trkpt><trkpt lat="44.9142233" lon="7.277625"><ele>917.0</ele><time>2026-03-29T10:31:54.953Z</time></trkpt><trkpt lat="44.914315" lon="7.2776933"><ele>917.0</ele><time>2026-03-29T10:31:56.953Z</time></trkpt><trkpt lat="44.9144217" lon="7.2778083"><ele>917.0</ele><time>2026-03-29T10:31:58.953Z</time></trkpt><trkpt lat="44.91448" lon="7.2778817"><ele>917.0</ele><time>2026-03-29T10:31:59.953Z</time></trkpt><trkpt lat="44.914565" lon="7.2779833"><ele>919.0</ele><time>2026-03-29T10:32:00.953Z</time></trkpt><trkpt lat="44.914655" lon="7.278075"><ele>921.0</ele><time>2026-03-29T10:32:01.952Z</time></trkpt><trkpt lat="44.914745" lon="7.2781633"><ele>923.0</ele><time>2026-03-29T10:32:02.953Z</time></trkpt><trkpt lat="44.914835" lon="7.278235"><ele>925.0</ele><time>2026-03-29T10:32:03.953Z</time></trkpt><trkpt lat="44.9149217" lon="7.2782983"><ele>927.0</ele><time>2026-03-29T10:32:04.953Z</time></trkpt><trkpt lat="44.9150117" lon="7.2783633"><ele>929.6666666666666</ele><time>2026-03-29T10:32:05.953Z</time></trkpt><trkpt lat="44.9150983" lon="7.2784183"><ele>932.3333333333333</ele><time>2026-03-29T10:32:06.953Z</time></trkpt><trkpt lat="44.9151717" lon="7.2784633"><ele>935.0</ele><time>2026-03-29T10:32:07.953Z</time></trkpt><trkpt lat="44.915235" lon="7.278505"><ele>937.6666666666666</ele><time>2026-03-29T10:32:08.953Z</time></trkpt><trkpt lat="44.9153483" lon="7.27856"><ele>940.3333333333333</ele><time>2026-03-29T10:32:10.953Z</time></trkpt><trkpt lat="44.91541" lon="7.278595"><ele>943.0</ele><time>2026-03-29T10:32:11.953Z</time></trkpt><trkpt lat="44.91547" lon="7.2786483"><ele>942.9999999999999</ele><time>2026-03-29T10:32:12.953Z</time></trkpt><trkpt lat="44.9155383" lon="7.278695"><ele>943.0</ele><time>2026-03-29T10:32:13.953Z</time></trkpt><trkpt lat="44.9155917" lon="7.2787467"><ele>943.0</ele><time>2026-03-29T10:32:14.953Z</time></trkpt><trkpt lat="44.9156483" lon="7.2787933"><ele>943.0</ele><time>2026-03-29T10:32:15.953Z</time></trkpt><trkpt lat="44.915735" lon="7.27886"><ele>942.9999999999999</ele><time>2026-03-29T10:32:17.953Z</time></trkpt><trkpt lat="44.9157967" lon="7.2788917"><ele>943.0</ele><time>2026-03-29T10:32:20.953Z</time></trkpt><trkpt lat="44.9158733" lon="7.27894"><ele>943.4999999999999</ele><time>2026-03-29T10:32:23.953Z</time></trkpt><trkpt lat="44.9159567" lon="7.2789767"><ele>944.0</ele><time>2026-03-29T10:32:25.953Z</time></trkpt><trkpt lat="44.9160717" lon="7.2789583"><ele>944.5</ele><time>2026-03-29T10:32:27.952Z</time></trkpt><trkpt lat="44.9161383" lon="7.2789333"><ele>945.0</ele><time>2026-03-29T10:32:28.953Z</time></trkpt><trkpt lat="44.9162083" lon="7.2789017"><ele>945.4999999999999</ele><time>2026-03-29T10:32:29.953Z</time></trkpt><trkpt lat="44.9162833" lon="7.278865"><ele>946.0</ele><time>2026-03-29T10:32:30.953Z</time></trkpt><trkpt lat="44.9163633" lon="7.278835"><ele>946.1666666666666</ele><time>2026-03-29T10:32:31.953Z</time></trkpt><trkpt lat="44.9164367" lon="7.2788033"><ele>946.3333333333333</ele><time>2026-03-29T10:32:32.953Z</time></trkpt><trkpt lat="44.916515" lon="7.27877"><ele>946.5</ele><time>2026-03-29T10:32:33.953Z</time></trkpt><trkpt lat="44.9165967" lon="7.2787433"><ele>946.6666666666667</ele><time>2026-03-29T10:32:34.953Z</time></trkpt><trkpt lat="44.91668" lon="7.2787167"><ele>946.8333333333334</ele><time>2026-03-29T10:32:35.953Z</time></trkpt><trkpt lat="44.9167667" lon="7.2787083"><ele>947.0</ele><time>2026-03-29T10:32:36.953Z</time></trkpt><trkpt lat="44.91686" lon="7.278705"><ele>948.0</ele><time>2026-03-29T10:32:37.953Z</time></trkpt><trkpt lat="44.9169533" lon="7.2787"><ele>949.0</ele><time>2026-03-29T10:32:38.953Z</time></trkpt><trkpt lat="44.917055" lon="7.27868"><ele>950.0</ele><time>2026-03-29T10:32:39.953Z</time></trkpt><trkpt lat="44.9171567" lon="7.2786567"><ele>951.0</ele><time>2026-03-29T10:32:40.953Z</time></trkpt><trkpt lat="44.9172417" lon="7.27863"><ele>952.0</ele><time>2026-03-29T10:32:41.953Z</time></trkpt><trkpt lat="44.91731" lon="7.2786183"><ele>951.9999999999999</ele><time>2026-03-29T10:32:42.953Z</time></trkpt><trkpt lat="44.9173733" lon="7.2786217"><ele>952.0</ele><time>2026-03-29T10:32:43.953Z</time></trkpt><trkpt lat="44.9174383" lon="7.2786483"><ele>952.0</ele><time>2026-03-29T10:32:44.953Z</time></trkpt><trkpt lat="44.9175233" lon="7.2786817"><ele>952.0</ele><time>2026-03-29T10:32:45.953Z</time></trkpt><trkpt lat="44.917605" lon="7.278725"><ele>951.9999999999999</ele><time>2026-03-29T10:32:46.953Z</time></trkpt><trkpt lat="44.91768" lon="7.2787633"><ele>952.0</ele><time>2026-03-29T10:32:47.953Z</time></trkpt><trkpt lat="44.9177567" lon="7.2788233"><ele>953.1666666666666</ele><time>2026-03-29T10:32:48.953Z</time></trkpt><trkpt lat="44.917815" lon="7.2788833"><ele>954.3333333333333</ele><time>2026-03-29T10:32:49.953Z</time></trkpt><trkpt lat="44.9178667" lon="7.2789667"><ele>955.5</ele><time>2026-03-29T10:32:50.953Z</time></trkpt><trkpt lat="44.917915" lon="7.2790633"><ele>956.6666666666667</ele><time>2026-03-29T10:32:51.953Z</time></trkpt><trkpt lat="44.9179817" lon="7.2791617"><ele>957.8333333333334</ele><time>2026-03-29T10:32:52.953Z</time></trkpt><trkpt lat="44.9180517" lon="7.279245"><ele>959.0</ele><time>2026-03-29T10:32:53.953Z</time></trkpt><trkpt lat="44.9181283" lon="7.2793133"><ele>959.0000000000001</ele><time>2026-03-29T10:32:54.953Z</time></trkpt><trkpt lat="44.9182183" lon="7.27938"><ele>959.0</ele><time>2026-03-29T10:32:55.953Z</time></trkpt><trkpt lat="44.918305" lon="7.279445"><ele>959.0</ele><time>2026-03-29T10:32:56.953Z</time></trkpt><trkpt lat="44.9183817" lon="7.2795183"><ele>959.0</ele><time>2026-03-29T10:32:57.952Z</time></trkpt><trkpt lat="44.918455" lon="7.2795683"><ele>959.0000000000001</ele><time>2026-03-29T10:32:58.953Z</time></trkpt><trkpt lat="44.9185217" lon="7.2796083"><ele>959.0</ele><time>2026-03-29T10:32:59.953Z</time></trkpt><trkpt lat="44.9185867" lon="7.279635"><ele>958.25</ele><time>2026-03-29T10:33:00.953Z</time></trkpt><trkpt lat="44.91868" lon="7.2796217"><ele>957.5</ele><time>2026-03-29T10:33:02.953Z</time></trkpt><trkpt lat="44.91876" lon="7.2795183"><ele>956.75</ele><time>2026-03-29T10:33:04.953Z</time></trkpt><trkpt lat="44.918835" lon="7.27937"><ele>956.0</ele><time>2026-03-29T10:33:06.953Z</time></trkpt><trkpt lat="44.9189083" lon="7.2792117"><ele>956.0</ele><time>2026-03-29T10:33:08.953Z</time></trkpt><trkpt lat="44.918975" lon="7.2790683"><ele>955.9999999999999</ele><time>2026-03-29T10:33:10.953Z</time></trkpt><trkpt lat="44.9190417" lon="7.278925"><ele>955.9999999999999</ele><time>2026-03-29T10:33:12.953Z</time></trkpt><trkpt lat="44.9190833" lon="7.27885"><ele>956.0</ele><time>2026-03-29T10:33:13.953Z</time></trkpt><trkpt lat="44.919165" lon="7.2787183"><ele>956.0</ele><time>2026-03-29T10:33:15.953Z</time></trkpt><trkpt lat="44.9192533" lon="7.2786017"><ele>955.8333333333334</ele><time>2026-03-29T10:33:17.953Z</time></trkpt><trkpt lat="44.9193067" lon="7.278545"><ele>955.6666666666667</ele><time>2026-03-29T10:33:18.953Z</time></trkpt><trkpt lat="44.9193683" lon="7.2784867"><ele>955.5</ele><time>2026-03-29T10:33:19.953Z</time></trkpt><trkpt lat="44.91943" lon="7.2784467"><ele>955.3333333333333</ele><time>2026-03-29T10:33:20.953Z</time></trkpt><trkpt lat="44.919495" lon="7.27841"><ele>955.1666666666666</ele><time>2026-03-29T10:33:21.953Z</time></trkpt><trkpt lat="44.919565" lon="7.2783883"><ele>955.0</ele><time>2026-03-29T10:33:22.953Z</time></trkpt><trkpt lat="44.91969" lon="7.2783267"><ele>954.9999999999999</ele><time>2026-03-29T10:33:24.953Z</time></trkpt><trkpt lat="44.919765" lon="7.27828"><ele>955.0</ele><time>2026-03-29T10:33:25.953Z</time></trkpt><trkpt lat="44.9198467" lon="7.2782217"><ele>955.0</ele><time>2026-03-29T10:33:26.953Z</time></trkpt><trkpt lat="44.9199317" lon="7.2781717"><ele>955.0</ele><time>2026-03-29T10:33:27.953Z</time></trkpt><trkpt lat="44.9200117" lon="7.2781233"><ele>954.9999999999999</ele><time>2026-03-29T10:33:28.953Z</time></trkpt><trkpt lat="44.92009" lon="7.27809"><ele>955.0</ele><time>2026-03-29T10:33:29.952Z</time></trkpt><trkpt lat="44.9201683" lon="7.278055"><ele>953.9999999999999</ele><time>2026-03-29T10:33:30.953Z</time></trkpt><trkpt lat="44.92024" lon="7.278005"><ele>953.0</ele><time>2026-03-29T10:33:31.953Z</time></trkpt><trkpt lat="44.9203083" lon="7.2779417"><ele>952.0</ele><time>2026-03-29T10:33:32.953Z</time></trkpt><trkpt lat="44.9203683" lon="7.2778617"><ele>951.0</ele><time>2026-03-29T10:33:33.953Z</time></trkpt><trkpt lat="44.9204083" lon="7.2777517"><ele>949.9999999999999</ele><time>2026-03-29T10:33:34.953Z</time></trkpt><trkpt lat="44.9204433" lon="7.2776367"><ele>949.0</ele><time>2026-03-29T10:33:35.953Z</time></trkpt><trkpt lat="44.9204867" lon="7.2775183"><ele>949.0</ele><time>2026-03-29T10:33:36.953Z</time></trkpt><trkpt lat="44.9205367" lon="7.2774167"><ele>949.0000000000001</ele><time>2026-03-29T10:33:37.952Z</time></trkpt><trkpt lat="44.9206017" lon="7.277325"><ele>949.0000000000001</ele><time>2026-03-29T10:33:38.953Z</time></trkpt><trkpt lat="44.920675" lon="7.2772383"><ele>949.0</ele><time>2026-03-29T10:33:39.953Z</time></trkpt><trkpt lat="44.920745" lon="7.27715"><ele>949.0</ele><time>2026-03-29T10:33:40.952Z</time></trkpt><trkpt lat="44.9208083" lon="7.2770633"><ele>946.8000000000001</ele><time>2026-03-29T10:33:41.953Z</time></trkpt><trkpt lat="44.9208717" lon="7.276955"><ele>944.6000000000001</ele><time>2026-03-29T10:33:42.953Z</time></trkpt><trkpt lat="44.92092" lon="7.2768467"><ele>942.4</ele><time>2026-03-29T10:33:43.953Z</time></trkpt><trkpt lat="44.9209633" lon="7.2767567"><ele>940.2</ele><time>2026-03-29T10:33:44.953Z</time></trkpt><trkpt lat="44.9210183" lon="7.2766883"><ele>938.0</ele><time>2026-03-29T10:33:45.953Z</time></trkpt><trkpt lat="44.92113" lon="7.2766467"><ele>937.4</ele><time>2026-03-29T10:33:47.953Z</time></trkpt><trkpt lat="44.9212333" lon="7.2767233"><ele>936.8</ele><time>2026-03-29T10:33:49.953Z</time></trkpt><trkpt lat="44.92128" lon="7.2768133"><ele>936.2</ele><time>2026-03-29T10:33:50.953Z</time></trkpt><trkpt lat="44.9213417" lon="7.2769167"><ele>935.6</ele><time>2026-03-29T10:33:51.953Z</time></trkpt><trkpt lat="44.9214017" lon="7.2770083"><ele>935.0</ele><time>2026-03-29T10:33:52.953Z</time></trkpt><trkpt lat="44.9214783" lon="7.2770867"><ele>935.0</ele><time>2026-03-29T10:33:53.953Z</time></trkpt><trkpt lat="44.92157" lon="7.2771617"><ele>935.0</ele><time>2026-03-29T10:33:54.953Z</time></trkpt><trkpt lat="44.9216733" lon="7.2772183"><ele>935.0</ele><time>2026-03-29T10:33:55.953Z</time></trkpt><trkpt lat="44.9217783" lon="7.2772633"><ele>935.0</ele><time>2026-03-29T10:33:56.953Z</time></trkpt><trkpt lat="44.9218683" lon="7.27732"><ele>935.0</ele><time>2026-03-29T10:33:57.952Z</time></trkpt><trkpt lat="44.9219617" lon="7.2773767"><ele>936.4</ele><time>2026-03-29T10:33:58.953Z</time></trkpt><trkpt lat="44.9220467" lon="7.27745"><ele>937.8</ele><time>2026-03-29T10:33:59.953Z</time></trkpt><trkpt lat="44.9221333" lon="7.277555"><ele>939.2</ele><time>2026-03-29T10:34:00.953Z</time></trkpt><trkpt lat="44.92221" lon="7.2776767"><ele>940.6</ele><time>2026-03-29T10:34:01.953Z</time></trkpt><trkpt lat="44.9222767" lon="7.2777883"><ele>942.0</ele><time>2026-03-29T10:34:02.953Z</time></trkpt><trkpt lat="44.9223383" lon="7.2778933"><ele>942.0</ele><time>2026-03-29T10:34:03.953Z</time></trkpt><trkpt lat="44.9223983" lon="7.27796"><ele>942.0</ele><time>2026-03-29T10:34:04.953Z</time></trkpt><trkpt lat="44.922455" lon="7.2780067"><ele>942.0</ele><time>2026-03-29T10:34:05.953Z</time></trkpt><trkpt lat="44.92259" lon="7.27802"><ele>942.0</ele><time>2026-03-29T10:34:07.953Z</time></trkpt><trkpt lat="44.9226633" lon="7.2779983"><ele>942.0</ele><time>2026-03-29T10:34:08.953Z</time></trkpt><trkpt lat="44.9227417" lon="7.27799"><ele>942.0</ele><time>2026-03-29T10:34:09.952Z</time></trkpt><trkpt lat="44.9228233" lon="7.2779983"><ele>942.6666666666666</ele><time>2026-03-29T10:34:10.953Z</time></trkpt><trkpt lat="44.922905" lon="7.278015"><ele>943.3333333333333</ele><time>2026-03-29T10:34:11.953Z</time></trkpt><trkpt lat="44.9229867" lon="7.2780033"><ele>944.0</ele><time>2026-03-29T10:34:12.953Z</time></trkpt><trkpt lat="44.9230667" lon="7.27797"><ele>944.6666666666666</ele><time>2026-03-29T10:34:13.953Z</time></trkpt><trkpt lat="44.9231483" lon="7.2779117"><ele>945.3333333333333</ele><time>2026-03-29T10:34:14.953Z</time></trkpt><trkpt lat="44.9232383" lon="7.2778417"><ele>946.0</ele><time>2026-03-29T10:34:15.953Z</time></trkpt><trkpt lat="44.9233183" lon="7.27777"><ele>948.1999999999999</ele><time>2026-03-29T10:34:16.953Z</time></trkpt><trkpt lat="44.9234033" lon="7.2777033"><ele>950.3999999999999</ele><time>2026-03-29T10:34:17.953Z</time></trkpt><trkpt lat="44.9234717" lon="7.2776433"><ele>952.6</ele><time>2026-03-29T10:34:18.953Z</time></trkpt><trkpt lat="44.9235283" lon="7.2775783"><ele>954.8</ele><time>2026-03-29T10:34:19.953Z</time></trkpt><trkpt lat="44.9236017" lon="7.2774183"><ele>957.0</ele><time>2026-03-29T10:34:21.953Z</time></trkpt><trkpt lat="44.92363" lon="7.277325"><ele>955.6666666666666</ele><time>2026-03-29T10:34:22.953Z</time></trkpt><trkpt lat="44.9236617" lon="7.2772233"><ele>954.3333333333333</ele><time>2026-03-29T10:34:23.953Z</time></trkpt><trkpt lat="44.9237083" lon="7.2771267"><ele>953.0</ele><time>2026-03-29T10:34:24.952Z</time></trkpt><trkpt lat="44.923765" lon="7.277045"><ele>951.6666666666666</ele><time>2026-03-29T10:34:25.952Z</time></trkpt><trkpt lat="44.923825" lon="7.27697"><ele>950.3333333333333</ele><time>2026-03-29T10:34:26.953Z</time></trkpt><trkpt lat="44.9238983" lon="7.2768983"><ele>949.0</ele><time>2026-03-29T10:34:27.952Z</time></trkpt><trkpt lat="44.92398" lon="7.2768367"><ele>948.9999999999999</ele><time>2026-03-29T10:34:28.953Z</time></trkpt><trkpt lat="44.9240633" lon="7.2768017"><ele>949.0</ele><time>2026-03-29T10:34:29.953Z</time></trkpt><trkpt lat="44.9241367" lon="7.2767933"><ele>949.0</ele><time>2026-03-29T10:34:30.953Z</time></trkpt><trkpt lat="44.924215" lon="7.2768"><ele>949.0</ele><time>2026-03-29T10:34:31.953Z</time></trkpt><trkpt lat="44.9243067" lon="7.2768267"><ele>948.9999999999999</ele><time>2026-03-29T10:34:32.953Z</time></trkpt><trkpt lat="44.9244083" lon="7.2768633"><ele>949.0</ele><time>2026-03-29T10:34:33.953Z</time></trkpt><trkpt lat="44.9245233" lon="7.2769217"><ele>948.8000000000001</ele><time>2026-03-29T10:34:34.953Z</time></trkpt><trkpt lat="44.9246317" lon="7.2769833"><ele>948.6000000000001</ele><time>2026-03-29T10:34:35.953Z</time></trkpt><trkpt lat="44.92473" lon="7.2770467"><ele>948.4</ele><time>2026-03-29T10:34:36.953Z</time></trkpt><trkpt lat="44.9248183" lon="7.2770983"><ele>948.2</ele><time>2026-03-29T10:34:37.953Z</time></trkpt><trkpt lat="44.92491" lon="7.2771433"><ele>948.0</ele><time>2026-03-29T10:34:38.953Z</time></trkpt><trkpt lat="44.9250167" lon="7.2771483"><ele>952.25</ele><time>2026-03-29T10:34:39.953Z</time></trkpt><trkpt lat="44.9251267" lon="7.2771233"><ele>956.5</ele><time>2026-03-29T10:34:40.953Z</time></trkpt><trkpt lat="44.9252467" lon="7.27707"><ele>960.75</ele><time>2026-03-29T10:34:41.953Z</time></trkpt><trkpt lat="44.9253667" lon="7.2770017"><ele>965.0</ele><time>2026-03-29T10:34:42.953Z</time></trkpt><trkpt lat="44.9254817" lon="7.2769333"><ele>965.0</ele><time>2026-03-29T10:34:43.953Z</time></trkpt><trkpt lat="44.9255967" lon="7.276855"><ele>965.0</ele><time>2026-03-29T10:34:44.953Z</time></trkpt><trkpt lat="44.9256983" lon="7.2767783"><ele>965.0</ele><time>2026-03-29T10:34:45.953Z</time></trkpt><trkpt lat="44.9257967" lon="7.2767"><ele>965.0</ele><time>2026-03-29T10:34:46.953Z</time></trkpt><trkpt lat="44.9258983" lon="7.276635"><ele>969.0</ele><time>2026-03-29T10:34:47.953Z</time></trkpt><trkpt lat="44.925995" lon="7.2765633"><ele>973.0</ele><time>2026-03-29T10:34:48.953Z</time></trkpt><trkpt lat="44.92609" lon="7.2765083"><ele>977.0</ele><time>2026-03-29T10:34:49.953Z</time></trkpt><trkpt lat="44.9261867" lon="7.2764533"><ele>981.0</ele><time>2026-03-29T10:34:50.953Z</time></trkpt><trkpt lat="44.9262833" lon="7.2764117"><ele>985.0</ele><time>2026-03-29T10:34:51.953Z</time></trkpt><trkpt lat="44.9263733" lon="7.2763717"><ele>985.6666666666666</ele><time>2026-03-29T10:34:52.953Z</time></trkpt><trkpt lat="44.9264567" lon="7.276335"><ele>986.3333333333333</ele><time>2026-03-29T10:34:53.953Z</time></trkpt><trkpt lat="44.9265217" lon="7.276295"><ele>987.0</ele><time>2026-03-29T10:34:54.953Z</time></trkpt><trkpt lat="44.92657" lon="7.2762367"><ele>987.6666666666667</ele><time>2026-03-29T10:34:55.953Z</time></trkpt><trkpt lat="44.92659" lon="7.27609"><ele>988.3333333333334</ele><time>2026-03-29T10:34:57.953Z</time></trkpt><trkpt lat="44.9265483" lon="7.2759567"><ele>989.0</ele><time>2026-03-29T10:34:58.953Z</time></trkpt><trkpt lat="44.9265167" lon="7.27582"><ele>989.0</ele><time>2026-03-29T10:34:59.953Z</time></trkpt><trkpt lat="44.9264733" lon="7.2756817"><ele>989.0000000000001</ele><time>2026-03-29T10:35:00.953Z</time></trkpt><trkpt lat="44.926415" lon="7.275565"><ele>989.0000000000001</ele><time>2026-03-29T10:35:01.953Z</time></trkpt><trkpt lat="44.9263267" lon="7.2754667"><ele>989.0</ele><time>2026-03-29T10:35:02.953Z</time></trkpt><trkpt lat="44.926205" lon="7.27541"><ele>989.0</ele><time>2026-03-29T10:35:03.953Z</time></trkpt><trkpt lat="44.9260817" lon="7.2753667"><ele>988.1666666666667</ele><time>2026-03-29T10:35:04.953Z</time></trkpt><trkpt lat="44.9259783" lon="7.2753317"><ele>987.3333333333334</ele><time>2026-03-29T10:35:05.953Z</time></trkpt><trkpt lat="44.9258983" lon="7.2752783"><ele>986.5</ele><time>2026-03-29T10:35:06.953Z</time></trkpt><trkpt lat="44.9258417" lon="7.2752167"><ele>985.6666666666667</ele><time>2026-03-29T10:35:07.952Z</time></trkpt><trkpt lat="44.9257933" lon="7.2751283"><ele>984.8333333333334</ele><time>2026-03-29T10:35:08.953Z</time></trkpt><trkpt lat="44.9257583" lon="7.2750417"><ele>984.0</ele><time>2026-03-29T10:35:09.953Z</time></trkpt><trkpt lat="44.9257367" lon="7.27494"><ele>984.0</ele><time>2026-03-29T10:35:10.953Z</time></trkpt><trkpt lat="44.92573" lon="7.2748267"><ele>984.0</ele><time>2026-03-29T10:35:11.953Z</time></trkpt><trkpt lat="44.9257333" lon="7.2747133"><ele>984.0</ele><time>2026-03-29T10:35:12.953Z</time></trkpt><trkpt lat="44.9257533" lon="7.27458"><ele>984.0</ele><time>2026-03-29T10:35:13.952Z</time></trkpt><trkpt lat="44.925785" lon="7.27445"><ele>984.0</ele><time>2026-03-29T10:35:14.953Z</time></trkpt><trkpt lat="44.9258233" lon="7.2743317"><ele>984.0</ele><time>2026-03-29T10:35:15.953Z</time></trkpt><trkpt lat="44.92588" lon="7.2742"><ele>987.5</ele><time>2026-03-29T10:35:16.953Z</time></trkpt><trkpt lat="44.92595" lon="7.2740733"><ele>991.0</ele><time>2026-03-29T10:35:17.953Z</time></trkpt><trkpt lat="44.92603" lon="7.2739317"><ele>994.5</ele><time>2026-03-29T10:35:18.953Z</time></trkpt><trkpt lat="44.9261133" lon="7.27379"><ele>998.0</ele><time>2026-03-29T10:35:19.953Z</time></trkpt><trkpt lat="44.9261917" lon="7.273625"><ele>998.0</ele><time>2026-03-29T10:35:20.953Z</time></trkpt><trkpt lat="44.92627" lon="7.2734683"><ele>998.0</ele><time>2026-03-29T10:35:21.953Z</time></trkpt><trkpt lat="44.92634" lon="7.2733233"><ele>998.0</ele><time>2026-03-29T10:35:22.953Z</time></trkpt><trkpt lat="44.926405" lon="7.2732"><ele>998.0</ele><time>2026-03-29T10:35:23.953Z</time></trkpt><trkpt lat="44.9264667" lon="7.2730867"><ele>996.3333333333334</ele><time>2026-03-29T10:35:24.953Z</time></trkpt><trkpt lat="44.9265283" lon="7.27298"><ele>994.6666666666667</ele><time>2026-03-29T10:35:25.953Z</time></trkpt><trkpt lat="44.9265883" lon="7.27289"><ele>993.0</ele><time>2026-03-29T10:35:26.953Z</time></trkpt><trkpt lat="44.9266483" lon="7.2728183"><ele>991.3333333333333</ele><time>2026-03-29T10:35:27.953Z</time></trkpt><trkpt lat="44.92672" lon="7.2727467"><ele>989.6666666666666</ele><time>2026-03-29T10:35:28.953Z</time></trkpt><trkpt lat="44.926795" lon="7.2726867"><ele>988.0</ele><time>2026-03-29T10:35:29.953Z</time></trkpt><trkpt lat="44.9268667" lon="7.272635"><ele>987.9999999999999</ele><time>2026-03-29T10:35:30.953Z</time></trkpt><trkpt lat="44.9269383" lon="7.2726"><ele>988.0</ele><time>2026-03-29T10:35:31.953Z</time></trkpt><trkpt lat="44.9270117" lon="7.2725767"><ele>988.0</ele><time>2026-03-29T10:35:32.953Z</time></trkpt><trkpt lat="44.927135" lon="7.2725833"><ele>988.0</ele><time>2026-03-29T10:35:34.953Z</time></trkpt><trkpt lat="44.927205" lon="7.2726333"><ele>987.9999999999999</ele><time>2026-03-29T10:35:35.953Z</time></trkpt><trkpt lat="44.92729" lon="7.2726967"><ele>988.0</ele><time>2026-03-29T10:35:36.953Z</time></trkpt><trkpt lat="44.9273817" lon="7.2727617"><ele>988.0</ele><time>2026-03-29T10:35:37.953Z</time></trkpt><trkpt lat="44.9274817" lon="7.2728317"><ele>988.0</ele><time>2026-03-29T10:35:38.953Z</time></trkpt><trkpt lat="44.9276017" lon="7.2729033"><ele>988.0</ele><time>2026-03-29T10:35:39.953Z</time></trkpt><trkpt lat="44.9277333" lon="7.2729667"><ele>988.0</ele><time>2026-03-29T10:35:40.953Z</time></trkpt><trkpt lat="44.92785" lon="7.27303"><ele>990.0</ele><time>2026-03-29T10:35:41.953Z</time></trkpt><trkpt lat="44.9279633" lon="7.2730767"><ele>992.0</ele><time>2026-03-29T10:35:42.953Z</time></trkpt><trkpt lat="44.9280583" lon="7.2731283"><ele>994.0</ele><time>2026-03-29T10:35:43.953Z</time></trkpt><trkpt lat="44.9281417" lon="7.27316"><ele>996.0</ele><time>2026-03-29T10:35:44.953Z</time></trkpt><trkpt lat="44.9282083" lon="7.2731617"><ele>998.0</ele><time>2026-03-29T10:35:45.953Z</time></trkpt><trkpt lat="44.9283017" lon="7.27307"><ele>998.0</ele><time>2026-03-29T10:35:47.953Z</time></trkpt><trkpt lat="44.9283467" lon="7.2729733"><ele>998.0</ele><time>2026-03-29T10:35:48.953Z</time></trkpt><trkpt lat="44.9283917" lon="7.2728417"><ele>998.0</ele><time>2026-03-29T10:35:49.953Z</time></trkpt><trkpt lat="44.9284433" lon="7.272685"><ele>998.0</ele><time>2026-03-29T10:35:50.953Z</time></trkpt><trkpt lat="44.9284917" lon="7.27253"><ele>998.0</ele><time>2026-03-29T10:35:51.953Z</time></trkpt><trkpt lat="44.9285517" lon="7.2723967"><ele>997.8</ele><time>2026-03-29T10:35:52.953Z</time></trkpt><trkpt lat="44.9286133" lon="7.2722917"><ele>997.5999999999999</ele><time>2026-03-29T10:35:53.953Z</time></trkpt><trkpt lat="44.9286667" lon="7.2722067"><ele>997.4000000000001</ele><time>2026-03-29T10:35:54.953Z</time></trkpt><trkpt lat="44.9287233" lon="7.2721483"><ele>997.2</ele><time>2026-03-29T10:35:55.953Z</time></trkpt><trkpt lat="44.9288517" lon="7.272155"><ele>997.0</ele><time>2026-03-29T10:35:57.953Z</time></trkpt><trkpt lat="44.9289133" lon="7.2722167"><ele>998.8333333333333</ele><time>2026-03-29T10:35:58.953Z</time></trkpt><trkpt lat="44.9289683" lon="7.2723133"><ele>1000.6666666666666</ele><time>2026-03-29T10:35:59.953Z</time></trkpt><trkpt lat="44.9290333" lon="7.2724167"><ele>1002.5</ele><time>2026-03-29T10:36:00.953Z</time></trkpt><trkpt lat="44.9290767" lon="7.2725183"><ele>1004.3333333333333</ele><time>2026-03-29T10:36:01.953Z</time></trkpt><trkpt lat="44.9291167" lon="7.27261"><ele>1006.1666666666666</ele><time>2026-03-29T10:36:02.953Z</time></trkpt><trkpt lat="44.9291617" lon="7.2727067"><ele>1008.0</ele><time>2026-03-29T10:36:03.953Z</time></trkpt><trkpt lat="44.9292133" lon="7.272805"><ele>1008.6666666666666</ele><time>2026-03-29T10:36:04.953Z</time></trkpt><trkpt lat="44.9292683" lon="7.2729083"><ele>1009.3333333333333</ele><time>2026-03-29T10:36:05.953Z</time></trkpt><trkpt lat="44.9293217" lon="7.2730067"><ele>1010.0</ele><time>2026-03-29T10:36:06.953Z</time></trkpt><trkpt lat="44.9293717" lon="7.2730967"><ele>1010.6666666666666</ele><time>2026-03-29T10:36:07.952Z</time></trkpt><trkpt lat="44.92943" lon="7.273185"><ele>1011.3333333333333</ele><time>2026-03-29T10:36:08.953Z</time></trkpt><trkpt lat="44.9294783" lon="7.273265"><ele>1012.0</ele><time>2026-03-29T10:36:09.953Z</time></trkpt><trkpt lat="44.9295333" lon="7.273345"><ele>1011.9999999999999</ele><time>2026-03-29T10:36:10.953Z</time></trkpt><trkpt lat="44.9295933" lon="7.2734267"><ele>1012.0</ele><time>2026-03-29T10:36:11.953Z</time></trkpt><trkpt lat="44.9296433" lon="7.2735133"><ele>1012.0</ele><time>2026-03-29T10:36:12.953Z</time></trkpt><trkpt lat="44.929685" lon="7.2736083"><ele>1012.0</ele><time>2026-03-29T10:36:13.953Z</time></trkpt><trkpt lat="44.9297217" lon="7.27372"><ele>1011.9999999999999</ele><time>2026-03-29T10:36:14.953Z</time></trkpt><trkpt lat="44.9297467" lon="7.273845"><ele>1012.0</ele><time>2026-03-29T10:36:15.953Z</time></trkpt><trkpt lat="44.92976" lon="7.2739667"><ele>1013.4000000000001</ele><time>2026-03-29T10:36:16.953Z</time></trkpt><trkpt lat="44.929765" lon="7.2741067"><ele>1014.8000000000001</ele><time>2026-03-29T10:36:17.953Z</time></trkpt><trkpt lat="44.9297733" lon="7.2742417"><ele>1016.2</ele><time>2026-03-29T10:36:18.953Z</time></trkpt><trkpt lat="44.9297833" lon="7.2743717"><ele>1017.6</ele><time>2026-03-29T10:36:19.952Z</time></trkpt><trkpt lat="44.929805" lon="7.27449"><ele>1019.0</ele><time>2026-03-29T10:36:20.953Z</time></trkpt><trkpt lat="44.92982" lon="7.274595"><ele>1019.0000000000001</ele><time>2026-03-29T10:36:21.953Z</time></trkpt><trkpt lat="44.9298383" lon="7.2746917"><ele>1019.0</ele><time>2026-03-29T10:36:22.953Z</time></trkpt><trkpt lat="44.9298617" lon="7.2747833"><ele>1019.0</ele><time>2026-03-29T10:36:23.953Z</time></trkpt><trkpt lat="44.929915" lon="7.2749217"><ele>1019.0</ele><time>2026-03-29T10:36:25.953Z</time></trkpt><trkpt lat="44.9300133" lon="7.2749767"><ele>1019.0000000000001</ele><time>2026-03-29T10:36:27.953Z</time></trkpt><trkpt lat="44.9300817" lon="7.2749767"><ele>1019.0</ele><time>2026-03-29T10:36:28.953Z</time></trkpt><trkpt lat="44.9301517" lon="7.2749517"><ele>1019.0</ele><time>2026-03-29T10:36:29.953Z</time></trkpt><trkpt lat="44.93024" lon="7.2749133"><ele>1019.0000000000001</ele><time>2026-03-29T10:36:30.953Z</time></trkpt><trkpt lat="44.9303417" lon="7.27487"><ele>1019.0000000000001</ele><time>2026-03-29T10:36:31.953Z</time></trkpt><trkpt lat="44.930455" lon="7.2748317"><ele>1019.0</ele><time>2026-03-29T10:36:32.953Z</time></trkpt><trkpt lat="44.9305833" lon="7.2747983"><ele>1019.0</ele><time>2026-03-29T10:36:33.953Z</time></trkpt><trkpt lat="44.930705" lon="7.2747633"><ele>1019.4000000000001</ele><time>2026-03-29T10:36:34.953Z</time></trkpt><trkpt lat="44.9308083" lon="7.2747383"><ele>1019.8000000000001</ele><time>2026-03-29T10:36:35.953Z</time></trkpt><trkpt lat="44.9309017" lon="7.2747083"><ele>1020.1999999999999</ele><time>2026-03-29T10:36:36.953Z</time></trkpt><trkpt lat="44.931" lon="7.274715"><ele>1020.5999999999999</ele><time>2026-03-29T10:36:37.953Z</time></trkpt><trkpt lat="44.9310883" lon="7.2747517"><ele>1021.0</ele><time>2026-03-29T10:36:38.953Z</time></trkpt><trkpt lat="44.9311617" lon="7.2747767"><ele>1022.4999999999999</ele><time>2026-03-29T10:36:39.953Z</time></trkpt><trkpt lat="44.93123" lon="7.274785"><ele>1024.0</ele><time>2026-03-29T10:36:40.953Z</time></trkpt><trkpt lat="44.9312967" lon="7.2747783"><ele>1025.5</ele><time>2026-03-29T10:36:41.953Z</time></trkpt><trkpt lat="44.9313583" lon="7.2747383"><ele>1027.0</ele><time>2026-03-29T10:36:42.953Z</time></trkpt><trkpt lat="44.9314183" lon="7.2746783"><ele>1028.5</ele><time>2026-03-29T10:36:43.953Z</time></trkpt><trkpt lat="44.931475" lon="7.274585"><ele>1030.0</ele><time>2026-03-29T10:36:44.953Z</time></trkpt><trkpt lat="44.9315367" lon="7.2744733"><ele>1031.4</ele><time>2026-03-29T10:36:45.953Z</time></trkpt><trkpt lat="44.9315967" lon="7.2743633"><ele>1032.8</ele><time>2026-03-29T10:36:46.953Z</time></trkpt><trkpt lat="44.9316533" lon="7.274265"><ele>1034.2</ele><time>2026-03-29T10:36:47.953Z</time></trkpt><trkpt lat="44.9317283" lon="7.274155"><ele>1035.6</ele><time>2026-03-29T10:36:48.953Z</time></trkpt><trkpt lat="44.93181" lon="7.2740667"><ele>1037.0</ele><time>2026-03-29T10:36:49.953Z</time></trkpt><trkpt lat="44.931895" lon="7.2739933"><ele>1040.6</ele><time>2026-03-29T10:36:50.953Z</time></trkpt><trkpt lat="44.9319733" lon="7.2739333"><ele>1044.2</ele><time>2026-03-29T10:36:51.953Z</time></trkpt><trkpt lat="44.9320533" lon="7.2738583"><ele>1047.8</ele><time>2026-03-29T10:36:52.953Z</time></trkpt><trkpt lat="44.93212" lon="7.2737783"><ele>1051.4</ele><time>2026-03-29T10:36:53.953Z</time></trkpt><trkpt lat="44.9321883" lon="7.2736933"><ele>1055.0</ele><time>2026-03-29T10:36:54.953Z</time></trkpt><trkpt lat="44.932265" lon="7.2736033"><ele>1055.0</ele><time>2026-03-29T10:36:56.953Z</time></trkpt><trkpt lat="44.93233" lon="7.27362"><ele>1055.0</ele><time>2026-03-29T10:36:58.953Z</time></trkpt><trkpt lat="44.9323733" lon="7.2736883"><ele>1055.0</ele><time>2026-03-29T10:36:59.953Z</time></trkpt><trkpt lat="44.9324017" lon="7.2737967"><ele>1055.0</ele><time>2026-03-29T10:37:00.953Z</time></trkpt><trkpt lat="44.932435" lon="7.2739033"><ele>1055.0</ele><time>2026-03-29T10:37:01.953Z</time></trkpt><trkpt lat="44.9324733" lon="7.2740217"><ele>1055.0</ele><time>2026-03-29T10:37:02.953Z</time></trkpt><trkpt lat="44.9325233" lon="7.2741483"><ele>1056.4</ele><time>2026-03-29T10:37:03.953Z</time></trkpt><trkpt lat="44.9326017" lon="7.27427"><ele>1057.8</ele><time>2026-03-29T10:37:04.952Z</time></trkpt><trkpt lat="44.9326767" lon="7.2743683"><ele>1059.2</ele><time>2026-03-29T10:37:05.953Z</time></trkpt><trkpt lat="44.9327467" lon="7.274445"><ele>1060.6</ele><time>2026-03-29T10:37:06.953Z</time></trkpt><trkpt lat="44.9328183" lon="7.2745017"><ele>1062.0</ele><time>2026-03-29T10:37:07.953Z</time></trkpt><trkpt lat="44.9328967" lon="7.2745317"><ele>1062.0</ele><time>2026-03-29T10:37:08.953Z</time></trkpt><trkpt lat="44.9329867" lon="7.2745333"><ele>1062.0</ele><time>2026-03-29T10:37:09.953Z</time></trkpt><trkpt lat="44.933075" lon="7.274515"><ele>1062.0</ele><time>2026-03-29T10:37:10.953Z</time></trkpt><trkpt lat="44.9331817" lon="7.2744683"><ele>1062.0</ele><time>2026-03-29T10:37:11.953Z</time></trkpt><trkpt lat="44.9332867" lon="7.27442"><ele>1062.0</ele><time>2026-03-29T10:37:12.953Z</time></trkpt><trkpt lat="44.9333967" lon="7.2743483"><ele>1060.5</ele><time>2026-03-29T10:37:13.953Z</time></trkpt><trkpt lat="44.9335133" lon="7.2742633"><ele>1059.0</ele><time>2026-03-29T10:37:14.953Z</time></trkpt><trkpt lat="44.933635" lon="7.27418"><ele>1057.5</ele><time>2026-03-29T10:37:15.953Z</time></trkpt><trkpt lat="44.9337583" lon="7.274085"><ele>1056.0</ele><time>2026-03-29T10:37:16.953Z</time></trkpt><trkpt lat="44.9338733" lon="7.273995"><ele>1059.75</ele><time>2026-03-29T10:37:17.953Z</time></trkpt><trkpt lat="44.9339733" lon="7.2739067"><ele>1063.5</ele><time>2026-03-29T10:37:18.953Z</time></trkpt><trkpt lat="44.9340683" lon="7.2738183"><ele>1067.25</ele><time>2026-03-29T10:37:19.953Z</time></trkpt><trkpt lat="44.93417" lon="7.2737333"><ele>1071.0</ele><time>2026-03-29T10:37:20.953Z</time></trkpt><trkpt lat="44.93427" lon="7.273655"><ele>1071.0</ele><time>2026-03-29T10:37:21.953Z</time></trkpt><trkpt lat="44.93438" lon="7.2735883"><ele>1071.0</ele><time>2026-03-29T10:37:22.953Z</time></trkpt><trkpt lat="44.934495" lon="7.2735367"><ele>1071.0</ele><time>2026-03-29T10:37:23.953Z</time></trkpt><trkpt lat="44.9346067" lon="7.273485"><ele>1071.0</ele><time>2026-03-29T10:37:24.953Z</time></trkpt><trkpt lat="44.9347133" lon="7.2734483"><ele>1071.0</ele><time>2026-03-29T10:37:25.953Z</time></trkpt><trkpt lat="44.9348233" lon="7.2734033"><ele>1071.0</ele><time>2026-03-29T10:37:26.953Z</time></trkpt><trkpt lat="44.9349267" lon="7.2733617"><ele>1071.0</ele><time>2026-03-29T10:37:27.953Z</time></trkpt><trkpt lat="44.9350167" lon="7.27331"><ele>1071.0</ele><time>2026-03-29T10:37:28.953Z</time></trkpt><trkpt lat="44.9351017" lon="7.27326"><ele>1071.0</ele><time>2026-03-29T10:37:29.953Z</time></trkpt><trkpt lat="44.9351767" lon="7.2731733"><ele>1074.8</ele><time>2026-03-29T10:37:30.952Z</time></trkpt><trkpt lat="44.93524" lon="7.273075"><ele>1078.6</ele><time>2026-03-29T10:37:31.953Z</time></trkpt><trkpt lat="44.9353" lon="7.2729633"><ele>1082.4</ele><time>2026-03-29T10:37:32.953Z</time></trkpt><trkpt lat="44.9353617" lon="7.27285"><ele>1086.2</ele><time>2026-03-29T10:37:33.953Z</time></trkpt><trkpt lat="44.9354233" lon="7.2727467"><ele>1090.0</ele><time>2026-03-29T10:37:34.953Z</time></trkpt><trkpt lat="44.9354917" lon="7.2726433"><ele>1090.0</ele><time>2026-03-29T10:37:35.953Z</time></trkpt><trkpt lat="44.9355683" lon="7.27257"><ele>1090.0</ele><time>2026-03-29T10:37:36.953Z</time></trkpt><trkpt lat="44.9356417" lon="7.2725133"><ele>1090.0</ele><time>2026-03-29T10:37:37.953Z</time></trkpt><trkpt lat="44.9357267" lon="7.2724483"><ele>1090.0</ele><time>2026-03-29T10:37:38.953Z</time></trkpt><trkpt lat="44.9358017" lon="7.27238"><ele>1090.0</ele><time>2026-03-29T10:37:39.953Z</time></trkpt><trkpt lat="44.9358567" lon="7.2722983"><ele>1090.0</ele><time>2026-03-29T10:37:40.953Z</time></trkpt><trkpt lat="44.9358933" lon="7.2722083"><ele>1093.8333333333333</ele><time>2026-03-29T10:37:41.953Z</time></trkpt><trkpt lat="44.9359283" lon="7.2721233"><ele>1097.6666666666665</ele><time>2026-03-29T10:37:42.953Z</time></trkpt><trkpt lat="44.9360167" lon="7.2719867"><ele>1101.5</ele><time>2026-03-29T10:37:44.952Z</time></trkpt><trkpt lat="44.936075" lon="7.2719317"><ele>1105.3333333333333</ele><time>2026-03-29T10:37:45.953Z</time></trkpt><trkpt lat="44.9361317" lon="7.27188"><ele>1109.1666666666667</ele><time>2026-03-29T10:37:46.953Z</time></trkpt><trkpt lat="44.9362183" lon="7.2718167"><ele>1113.0</ele><time>2026-03-29T10:37:48.953Z</time></trkpt><trkpt lat="44.9362467" lon="7.2717233"><ele>1113.0</ele><time>2026-03-29T10:37:50.953Z</time></trkpt><trkpt lat="44.9361933" lon="7.27164"><ele>1113.0</ele><time>2026-03-29T10:37:52.952Z</time></trkpt><trkpt lat="44.9360983" lon="7.2715233"><ele>1113.0</ele><time>2026-03-29T10:37:54.953Z</time></trkpt><trkpt lat="44.9360367" lon="7.2714617"><ele>1113.0</ele><time>2026-03-29T10:37:55.953Z</time></trkpt><trkpt lat="44.9359633" lon="7.2713983"><ele>1113.0</ele><time>2026-03-29T10:37:56.953Z</time></trkpt><trkpt lat="44.9358917" lon="7.271345"><ele>1113.0</ele><time>2026-03-29T10:37:57.953Z</time></trkpt><trkpt lat="44.9357983" lon="7.2713067"><ele>1112.6666666666667</ele><time>2026-03-29T10:37:58.953Z</time></trkpt><trkpt lat="44.9357067" lon="7.2712433"><ele>1112.3333333333333</ele><time>2026-03-29T10:37:59.953Z</time></trkpt><trkpt lat="44.9356383" lon="7.2711817"><ele>1112.0</ele><time>2026-03-29T10:38:00.953Z</time></trkpt><trkpt lat="44.93558" lon="7.2711067"><ele>1111.6666666666665</ele><time>2026-03-29T10:38:01.953Z</time></trkpt><trkpt lat="44.9355283" lon="7.271015"><ele>1111.3333333333333</ele><time>2026-03-29T10:38:02.953Z</time></trkpt><trkpt lat="44.9354883" lon="7.27092"><ele>1111.0</ele><time>2026-03-29T10:38:03.952Z</time></trkpt><trkpt lat="44.9354667" lon="7.2708267"><ele>1111.0</ele><time>2026-03-29T10:38:04.953Z</time></trkpt><trkpt lat="44.9354783" lon="7.2707283"><ele>1111.0</ele><time>2026-03-29T10:38:05.953Z</time></trkpt><trkpt lat="44.935525" lon="7.2706267"><ele>1111.0</ele><time>2026-03-29T10:38:06.953Z</time></trkpt><trkpt lat="44.9355983" lon="7.2705233"><ele>1111.0</ele><time>2026-03-29T10:38:07.953Z</time></trkpt><trkpt lat="44.9356817" lon="7.2704233"><ele>1111.0</ele><time>2026-03-29T10:38:08.953Z</time></trkpt><trkpt lat="44.9357733" lon="7.27035"><ele>1111.2</ele><time>2026-03-29T10:38:09.953Z</time></trkpt><trkpt lat="44.93588" lon="7.2703033"><ele>1111.3999999999999</ele><time>2026-03-29T10:38:10.953Z</time></trkpt><trkpt lat="44.9359717" lon="7.2702733"><ele>1111.6</ele><time>2026-03-29T10:38:11.953Z</time></trkpt><trkpt lat="44.9360517" lon="7.2702233"><ele>1111.8</ele><time>2026-03-29T10:38:12.953Z</time></trkpt><trkpt lat="44.936125" lon="7.27016"><ele>1112.0</ele><time>2026-03-29T10:38:13.953Z</time></trkpt><trkpt lat="44.9361817" lon="7.27008"><ele>1114.8</ele><time>2026-03-29T10:38:14.953Z</time></trkpt><trkpt lat="44.9362183" lon="7.2699767"><ele>1117.6</ele><time>2026-03-29T10:38:15.952Z</time></trkpt><trkpt lat="44.93625" lon="7.2698633"><ele>1120.3999999999999</ele><time>2026-03-29T10:38:16.953Z</time></trkpt><trkpt lat="44.93629" lon="7.2697467"><ele>1123.2</ele><time>2026-03-29T10:38:17.953Z</time></trkpt><trkpt lat="44.9363367" lon="7.26963"><ele>1126.0</ele><time>2026-03-29T10:38:18.953Z</time></trkpt><trkpt lat="44.9363883" lon="7.269515"><ele>1126.0</ele><time>2026-03-29T10:38:19.953Z</time></trkpt><trkpt lat="44.9364317" lon="7.2694317"><ele>1126.0</ele><time>2026-03-29T10:38:20.953Z</time></trkpt><trkpt lat="44.93652" lon="7.269325"><ele>1126.0</ele><time>2026-03-29T10:38:22.953Z</time></trkpt><trkpt lat="44.9366317" lon="7.269325"><ele>1126.0</ele><time>2026-03-29T10:38:24.953Z</time></trkpt><trkpt lat="44.93669" lon="7.26937"><ele>1126.0</ele><time>2026-03-29T10:38:25.953Z</time></trkpt><trkpt lat="44.936745" lon="7.2694567"><ele>1130.2</ele><time>2026-03-29T10:38:26.953Z</time></trkpt><trkpt lat="44.9367883" lon="7.2695767"><ele>1134.3999999999999</ele><time>2026-03-29T10:38:27.953Z</time></trkpt><trkpt lat="44.93683" lon="7.2696967"><ele>1138.6</ele><time>2026-03-29T10:38:28.953Z</time></trkpt><trkpt lat="44.936865" lon="7.2698133"><ele>1142.8</ele><time>2026-03-29T10:38:29.953Z</time></trkpt><trkpt lat="44.9369233" lon="7.2699167"><ele>1147.0</ele><time>2026-03-29T10:38:30.953Z</time></trkpt><trkpt lat="44.9369817" lon="7.2700167"><ele>1147.0</ele><time>2026-03-29T10:38:31.953Z</time></trkpt><trkpt lat="44.937055" lon="7.2701067"><ele>1147.0</ele><time>2026-03-29T10:38:32.953Z</time></trkpt><trkpt lat="44.93714" lon="7.2701833"><ele>1147.0</ele><time>2026-03-29T10:38:33.953Z</time></trkpt><trkpt lat="44.9372233" lon="7.2702483"><ele>1147.0</ele><time>2026-03-29T10:38:34.953Z</time></trkpt><trkpt lat="44.93731" lon="7.2703233"><ele>1147.0</ele><time>2026-03-29T10:38:35.953Z</time></trkpt><trkpt lat="44.9374033" lon="7.2703683"><ele>1147.0</ele><time>2026-03-29T10:38:36.953Z</time></trkpt><trkpt lat="44.9374967" lon="7.2704067"><ele>1147.0</ele><time>2026-03-29T10:38:37.952Z</time></trkpt><trkpt lat="44.937585" lon="7.270435"><ele>1147.0</ele><time>2026-03-29T10:38:38.953Z</time></trkpt><trkpt lat="44.93767" lon="7.2704383"><ele>1147.0</ele><time>2026-03-29T10:38:39.953Z</time></trkpt><trkpt lat="44.9377617" lon="7.27043"><ele>1147.0</ele><time>2026-03-29T10:38:40.953Z</time></trkpt><trkpt lat="44.9378583" lon="7.270405"><ele>1147.4</ele><time>2026-03-29T10:38:41.953Z</time></trkpt><trkpt lat="44.9379567" lon="7.27035"><ele>1147.8000000000002</ele><time>2026-03-29T10:38:42.953Z</time></trkpt><trkpt lat="44.9380533" lon="7.2702783"><ele>1148.2</ele><time>2026-03-29T10:38:43.953Z</time></trkpt><trkpt lat="44.9381433" lon="7.2701983"><ele>1148.6000000000001</ele><time>2026-03-29T10:38:44.953Z</time></trkpt><trkpt lat="44.938235" lon="7.2701183"><ele>1149.0</ele><time>2026-03-29T10:38:45.953Z</time></trkpt><trkpt lat="44.9383333" lon="7.270035"><ele>1147.6000000000001</ele><time>2026-03-29T10:38:46.953Z</time></trkpt><trkpt lat="44.93844" lon="7.2699633"><ele>1146.2</ele><time>2026-03-29T10:38:47.953Z</time></trkpt><trkpt lat="44.9385367" lon="7.2699083"><ele>1144.8000000000002</ele><time>2026-03-29T10:38:48.953Z</time></trkpt><trkpt lat="44.9386283" lon="7.2698517"><ele>1143.4</ele><time>2026-03-29T10:38:49.953Z</time></trkpt><trkpt lat="44.93871" lon="7.26982"><ele>1142.0</ele><time>2026-03-29T10:38:50.953Z</time></trkpt><trkpt lat="44.93878" lon="7.2697883"><ele>1142.0</ele><time>2026-03-29T10:38:51.953Z</time></trkpt><trkpt lat="44.9388933" lon="7.2698133"><ele>1142.0</ele><time>2026-03-29T10:38:53.953Z</time></trkpt><trkpt lat="44.9389967" lon="7.2699267"><ele>1142.0</ele><time>2026-03-29T10:38:55.953Z</time></trkpt><trkpt lat="44.9390333" lon="7.270015"><ele>1142.0</ele><time>2026-03-29T10:38:56.953Z</time></trkpt><trkpt lat="44.9390867" lon="7.2701233"><ele>1142.0</ele><time>2026-03-29T10:38:57.953Z</time></trkpt><trkpt lat="44.9391367" lon="7.2702583"><ele>1142.0</ele><time>2026-03-29T10:38:58.953Z</time></trkpt><trkpt lat="44.9391817" lon="7.2703867"><ele>1142.0</ele><time>2026-03-29T10:38:59.953Z</time></trkpt><trkpt lat="44.9392383" lon="7.270515"><ele>1142.0</ele><time>2026-03-29T10:39:00.953Z</time></trkpt><trkpt lat="44.9392733" lon="7.27064"><ele>1142.0</ele><time>2026-03-29T10:39:01.953Z</time></trkpt><trkpt lat="44.9393133" lon="7.27074"><ele>1142.0</ele><time>2026-03-29T10:39:02.953Z</time></trkpt><trkpt lat="44.9393717" lon="7.2708117"><ele>1141.1666666666667</ele><time>2026-03-29T10:39:03.953Z</time></trkpt><trkpt lat="44.93943" lon="7.2708617"><ele>1140.3333333333335</ele><time>2026-03-29T10:39:04.953Z</time></trkpt><trkpt lat="44.9395" lon="7.2708883"><ele>1139.5</ele><time>2026-03-29T10:39:05.952Z</time></trkpt><trkpt lat="44.9395767" lon="7.2709167"><ele>1138.6666666666667</ele><time>2026-03-29T10:39:06.952Z</time></trkpt><trkpt lat="44.939665" lon="7.2709333"><ele>1137.8333333333333</ele><time>2026-03-29T10:39:07.953Z</time></trkpt><trkpt lat="44.93977" lon="7.2709633"><ele>1137.0</ele><time>2026-03-29T10:39:08.953Z</time></trkpt><trkpt lat="44.93987" lon="7.27099"><ele>1137.0</ele><time>2026-03-29T10:39:09.953Z</time></trkpt><trkpt lat="44.93998" lon="7.2710083"><ele>1137.0</ele><time>2026-03-29T10:39:10.953Z</time></trkpt><trkpt lat="44.9400883" lon="7.2710183"><ele>1137.0</ele><time>2026-03-29T10:39:11.953Z</time></trkpt><trkpt lat="44.9401917" lon="7.2710183"><ele>1137.0</ele><time>2026-03-29T10:39:12.953Z</time></trkpt><trkpt lat="44.9403" lon="7.2710267"><ele>1137.0</ele><time>2026-03-29T10:39:13.953Z</time></trkpt><trkpt lat="44.940395" lon="7.2710417"><ele>1137.0</ele><time>2026-03-29T10:39:14.953Z</time></trkpt><trkpt lat="44.9404967" lon="7.2710667"><ele>1137.0</ele><time>2026-03-29T10:39:15.953Z</time></trkpt><trkpt lat="44.9406067" lon="7.2710983"><ele>1137.0</ele><time>2026-03-29T10:39:16.953Z</time></trkpt><trkpt lat="44.9407067" lon="7.271125"><ele>1137.0</ele><time>2026-03-29T10:39:17.953Z</time></trkpt><trkpt lat="44.9408" lon="7.2711633"><ele>1137.0</ele><time>2026-03-29T10:39:18.953Z</time></trkpt><trkpt lat="44.9408833" lon="7.27122"><ele>1139.4</ele><time>2026-03-29T10:39:19.953Z</time></trkpt><trkpt lat="44.9409617" lon="7.2712967"><ele>1141.8000000000002</ele><time>2026-03-29T10:39:20.953Z</time></trkpt><trkpt lat="44.94102" lon="7.2714133"><ele>1144.2</ele><time>2026-03-29T10:39:21.953Z</time></trkpt><trkpt lat="44.9410617" lon="7.2715517"><ele>1146.6000000000001</ele><time>2026-03-29T10:39:22.953Z</time></trkpt><trkpt lat="44.941105" lon="7.2716617"><ele>1149.0</ele><time>2026-03-29T10:39:23.953Z</time></trkpt><trkpt lat="44.9411683" lon="7.2717283"><ele>1149.1666666666667</ele><time>2026-03-29T10:39:24.953Z</time></trkpt><trkpt lat="44.9412333" lon="7.2717883"><ele>1149.3333333333333</ele><time>2026-03-29T10:39:25.953Z</time></trkpt><trkpt lat="44.9413067" lon="7.27182"><ele>1149.5</ele><time>2026-03-29T10:39:26.953Z</time></trkpt><trkpt lat="44.9413767" lon="7.2718583"><ele>1149.6666666666665</ele><time>2026-03-29T10:39:27.953Z</time></trkpt><trkpt lat="44.9414483" lon="7.2719167"><ele>1149.8333333333333</ele><time>2026-03-29T10:39:28.953Z</time></trkpt><trkpt lat="44.9415167" lon="7.271985"><ele>1150.0</ele><time>2026-03-29T10:39:29.953Z</time></trkpt><trkpt lat="44.9415833" lon="7.272075"><ele>1150.0</ele><time>2026-03-29T10:39:30.953Z</time></trkpt><trkpt lat="44.9416333" lon="7.2721683"><ele>1150.0</ele><time>2026-03-29T10:39:31.953Z</time></trkpt><trkpt lat="44.941685" lon="7.2722433"><ele>1150.0</ele><time>2026-03-29T10:39:32.953Z</time></trkpt><trkpt lat="44.9417333" lon="7.2723017"><ele>1150.0</ele><time>2026-03-29T10:39:33.953Z</time></trkpt><trkpt lat="44.9418367" lon="7.2723533"><ele>1150.0</ele><time>2026-03-29T10:39:35.953Z</time></trkpt><trkpt lat="44.9419317" lon="7.272345"><ele>1150.0</ele><time>2026-03-29T10:39:37.953Z</time></trkpt><trkpt lat="44.94206" lon="7.2722967"><ele>1149.1666666666665</ele><time>2026-03-29T10:39:39.953Z</time></trkpt><trkpt lat="44.942145" lon="7.2722767"><ele>1148.3333333333333</ele><time>2026-03-29T10:39:40.953Z</time></trkpt><trkpt lat="44.942225" lon="7.2722667"><ele>1147.5</ele><time>2026-03-29T10:39:41.952Z</time></trkpt><trkpt lat="44.94231" lon="7.2722683"><ele>1146.6666666666667</ele><time>2026-03-29T10:39:42.953Z</time></trkpt><trkpt lat="44.9423917" lon="7.2722667"><ele>1145.8333333333335</ele><time>2026-03-29T10:39:43.953Z</time></trkpt><trkpt lat="44.9424733" lon="7.2722533"><ele>1145.0</ele><time>2026-03-29T10:39:44.953Z</time></trkpt><trkpt lat="44.9425517" lon="7.2722233"><ele>1146.6666666666667</ele><time>2026-03-29T10:39:45.953Z</time></trkpt><trkpt lat="44.94264" lon="7.2721917"><ele>1148.3333333333335</ele><time>2026-03-29T10:39:46.953Z</time></trkpt><trkpt lat="44.942725" lon="7.2721617"><ele>1150.0</ele><time>2026-03-29T10:39:47.953Z</time></trkpt><trkpt lat="44.94281" lon="7.272165"><ele>1151.6666666666667</ele><time>2026-03-29T10:39:48.953Z</time></trkpt><trkpt lat="44.9428917" lon="7.2721983"><ele>1153.3333333333333</ele><time>2026-03-29T10:39:49.953Z</time></trkpt><trkpt lat="44.942965" lon="7.2722783"><ele>1155.0</ele><time>2026-03-29T10:39:50.953Z</time></trkpt><trkpt lat="44.9430333" lon="7.2723567"><ele>1155.0</ele><time>2026-03-29T10:39:51.953Z</time></trkpt><trkpt lat="44.94311" lon="7.27244"><ele>1155.0</ele><time>2026-03-29T10:39:52.953Z</time></trkpt><trkpt lat="44.9432" lon="7.27253"><ele>1155.0</ele><time>2026-03-29T10:39:53.952Z</time></trkpt><trkpt lat="44.9432833" lon="7.2725983"><ele>1155.0</ele><time>2026-03-29T10:39:54.953Z</time></trkpt><trkpt lat="44.9433583" lon="7.272645"><ele>1155.0</ele><time>2026-03-29T10:39:55.953Z</time></trkpt><trkpt lat="44.9434317" lon="7.2726967"><ele>1156.4</ele><time>2026-03-29T10:39:56.953Z</time></trkpt><trkpt lat="44.9435117" lon="7.2727233"><ele>1157.8</ele><time>2026-03-29T10:39:57.953Z</time></trkpt><trkpt lat="44.9436067" lon="7.27273"><ele>1159.2</ele><time>2026-03-29T10:39:58.953Z</time></trkpt><trkpt lat="44.9436967" lon="7.2727183"><ele>1160.6</ele><time>2026-03-29T10:39:59.953Z</time></trkpt><trkpt lat="44.9437917" lon="7.272695"><ele>1162.0</ele><time>2026-03-29T10:40:00.953Z</time></trkpt><trkpt lat="44.94389" lon="7.272665"><ele>1162.0</ele><time>2026-03-29T10:40:01.953Z</time></trkpt><trkpt lat="44.9439783" lon="7.27262"><ele>1162.0</ele><time>2026-03-29T10:40:02.953Z</time></trkpt><trkpt lat="44.9440667" lon="7.272565"><ele>1162.0</ele><time>2026-03-29T10:40:03.953Z</time></trkpt><trkpt lat="44.94416" lon="7.2725217"><ele>1162.0</ele><time>2026-03-29T10:40:04.953Z</time></trkpt><trkpt lat="44.94426" lon="7.2724717"><ele>1162.0</ele><time>2026-03-29T10:40:05.953Z</time></trkpt><trkpt lat="44.944345" lon="7.2724383"><ele>1161.6666666666665</ele><time>2026-03-29T10:40:06.953Z</time></trkpt><trkpt lat="44.9444233" lon="7.2724067"><ele>1161.3333333333333</ele><time>2026-03-29T10:40:07.953Z</time></trkpt><trkpt lat="44.9445" lon="7.2723933"><ele>1161.0</ele><time>2026-03-29T10:40:08.953Z</time></trkpt><trkpt lat="44.9445817" lon="7.2723967"><ele>1160.6666666666667</ele><time>2026-03-29T10:40:09.953Z</time></trkpt><trkpt lat="44.94466" lon="7.2724083"><ele>1160.3333333333335</ele><time>2026-03-29T10:40:10.953Z</time></trkpt><trkpt lat="44.944745" lon="7.272465"><ele>1160.0</ele><time>2026-03-29T10:40:11.953Z</time></trkpt><trkpt lat="44.94485" lon="7.272545"><ele>1160.0</ele><time>2026-03-29T10:40:12.953Z</time></trkpt><trkpt lat="44.9449367" lon="7.2726167"><ele>1160.0</ele><time>2026-03-29T10:40:13.953Z</time></trkpt><trkpt lat="44.9450283" lon="7.2726983"><ele>1160.0</ele><time>2026-03-29T10:40:14.953Z</time></trkpt><trkpt lat="44.945115" lon="7.2727467"><ele>1160.0</ele><time>2026-03-29T10:40:15.953Z</time></trkpt><trkpt lat="44.9452117" lon="7.2728067"><ele>1160.0</ele><time>2026-03-29T10:40:16.953Z</time></trkpt><trkpt lat="44.9453133" lon="7.272885"><ele>1159.6666666666667</ele><time>2026-03-29T10:40:17.953Z</time></trkpt><trkpt lat="44.9453983" lon="7.2729617"><ele>1159.3333333333335</ele><time>2026-03-29T10:40:18.952Z</time></trkpt><trkpt lat="44.9454667" lon="7.2730283"><ele>1159.0</ele><time>2026-03-29T10:40:19.953Z</time></trkpt><trkpt lat="44.945535" lon="7.27308"><ele>1158.6666666666667</ele><time>2026-03-29T10:40:20.953Z</time></trkpt><trkpt lat="44.9456083" lon="7.273095"><ele>1158.3333333333333</ele><time>2026-03-29T10:40:21.953Z</time></trkpt><trkpt lat="44.9456833" lon="7.273075"><ele>1158.0</ele><time>2026-03-29T10:40:22.953Z</time></trkpt><trkpt lat="44.9457633" lon="7.2730333"><ele>1158.0</ele><time>2026-03-29T10:40:23.953Z</time></trkpt><trkpt lat="44.9458417" lon="7.2729983"><ele>1158.0</ele><time>2026-03-29T10:40:24.953Z</time></trkpt><trkpt lat="44.94592" lon="7.2729517"><ele>1158.0</ele><time>2026-03-29T10:40:25.953Z</time></trkpt><trkpt lat="44.9459933" lon="7.2728983"><ele>1158.0</ele><time>2026-03-29T10:40:26.953Z</time></trkpt><trkpt lat="44.9460567" lon="7.2728433"><ele>1158.0</ele><time>2026-03-29T10:40:27.953Z</time></trkpt><trkpt lat="44.9461167" lon="7.2727917"><ele>1158.0</ele><time>2026-03-29T10:40:28.953Z</time></trkpt><trkpt lat="44.9461767" lon="7.2727333"><ele>1157.3333333333333</ele><time>2026-03-29T10:40:29.953Z</time></trkpt><trkpt lat="44.946235" lon="7.27267"><ele>1156.6666666666667</ele><time>2026-03-29T10:40:30.953Z</time></trkpt><trkpt lat="44.9462917" lon="7.2726033"><ele>1156.0</ele><time>2026-03-29T10:40:31.953Z</time></trkpt><trkpt lat="44.9463467" lon="7.272515"><ele>1155.3333333333335</ele><time>2026-03-29T10:40:32.953Z</time></trkpt><trkpt lat="44.9464167" lon="7.2724117"><ele>1154.6666666666667</ele><time>2026-03-29T10:40:33.953Z</time></trkpt><trkpt lat="44.9464783" lon="7.272305"><ele>1154.0</ele><time>2026-03-29T10:40:34.953Z</time></trkpt><trkpt lat="44.94654" lon="7.2722067"><ele>1154.0</ele><time>2026-03-29T10:40:35.953Z</time></trkpt><trkpt lat="44.9466133" lon="7.272105"><ele>1154.0</ele><time>2026-03-29T10:40:36.953Z</time></trkpt><trkpt lat="44.9466983" lon="7.2720133"><ele>1154.0</ele><time>2026-03-29T10:40:37.953Z</time></trkpt><trkpt lat="44.9467817" lon="7.2719283"><ele>1154.0</ele><time>2026-03-29T10:40:38.953Z</time></trkpt><trkpt lat="44.94687" lon="7.2718483"><ele>1154.0</ele><time>2026-03-29T10:40:39.953Z</time></trkpt><trkpt lat="44.946955" lon="7.271785"><ele>1152.1666666666667</ele><time>2026-03-29T10:40:40.953Z</time></trkpt><trkpt lat="44.9470367" lon="7.2717367"><ele>1150.3333333333335</ele><time>2026-03-29T10:40:41.953Z</time></trkpt><trkpt lat="44.9471217" lon="7.2717067"><ele>1148.5</ele><time>2026-03-29T10:40:42.953Z</time></trkpt><trkpt lat="44.9472017" lon="7.2717017"><ele>1146.6666666666667</ele><time>2026-03-29T10:40:43.953Z</time></trkpt><trkpt lat="44.9472767" lon="7.27171"><ele>1144.8333333333333</ele><time>2026-03-29T10:40:44.952Z</time></trkpt><trkpt lat="44.9473717" lon="7.2717067"><ele>1143.0</ele><time>2026-03-29T10:40:45.953Z</time></trkpt><trkpt lat="44.9474633" lon="7.2716933"><ele>1142.8</ele><time>2026-03-29T10:40:46.953Z</time></trkpt><trkpt lat="44.94757" lon="7.2716717"><ele>1142.6</ele><time>2026-03-29T10:40:47.953Z</time></trkpt><trkpt lat="44.947675" lon="7.2716383"><ele>1142.4</ele><time>2026-03-29T10:40:48.953Z</time></trkpt><trkpt lat="44.9477733" lon="7.2716033"><ele>1142.2</ele><time>2026-03-29T10:40:49.953Z</time></trkpt><trkpt lat="44.9478533" lon="7.271575"><ele>1142.0</ele><time>2026-03-29T10:40:50.953Z</time></trkpt><trkpt lat="44.9479533" lon="7.2715083"><ele>1141.3333333333335</ele><time>2026-03-29T10:40:51.953Z</time></trkpt><trkpt lat="44.94805" lon="7.2714333"><ele>1140.6666666666667</ele><time>2026-03-29T10:40:52.953Z</time></trkpt><trkpt lat="44.94813" lon="7.2713683"><ele>1140.0</ele><time>2026-03-29T10:40:53.953Z</time></trkpt><trkpt lat="44.9482" lon="7.2713267"><ele>1139.3333333333333</ele><time>2026-03-29T10:40:54.953Z</time></trkpt><trkpt lat="44.9482717" lon="7.2713133"><ele>1138.6666666666665</ele><time>2026-03-29T10:40:55.953Z</time></trkpt><trkpt lat="44.948335" lon="7.271305"><ele>1138.0</ele><time>2026-03-29T10:40:56.953Z</time></trkpt><trkpt lat="44.9484567" lon="7.2713983"><ele>1137.0</ele><time>2026-03-29T10:40:58.953Z</time></trkpt><trkpt lat="44.94853" lon="7.27151"><ele>1136.0</ele><time>2026-03-29T10:40:59.953Z</time></trkpt><trkpt lat="44.9486033" lon="7.27163"><ele>1135.0</ele><time>2026-03-29T10:41:00.952Z</time></trkpt><trkpt lat="44.9486733" lon="7.2717467"><ele>1134.0</ele><time>2026-03-29T10:41:01.953Z</time></trkpt><trkpt lat="44.94874" lon="7.2718617"><ele>1133.0</ele><time>2026-03-29T10:41:02.953Z</time></trkpt><trkpt lat="44.94879" lon="7.2719683"><ele>1133.0</ele><time>2026-03-29T10:41:03.953Z</time></trkpt><trkpt lat="44.9488417" lon="7.2720717"><ele>1133.0</ele><time>2026-03-29T10:41:04.953Z</time></trkpt><trkpt lat="44.9488933" lon="7.272165"><ele>1133.0</ele><time>2026-03-29T10:41:05.953Z</time></trkpt><trkpt lat="44.9489417" lon="7.27225"><ele>1133.0</ele><time>2026-03-29T10:41:06.953Z</time></trkpt><trkpt lat="44.948995" lon="7.2723283"><ele>1133.0</ele><time>2026-03-29T10:41:07.953Z</time></trkpt><trkpt lat="44.9490567" lon="7.2724"><ele>1133.0</ele><time>2026-03-29T10:41:08.953Z</time></trkpt><trkpt lat="44.9491083" lon="7.2724633"><ele>1133.1666666666667</ele><time>2026-03-29T10:41:09.953Z</time></trkpt><trkpt lat="44.94917" lon="7.272515"><ele>1133.3333333333335</ele><time>2026-03-29T10:41:10.953Z</time></trkpt><trkpt lat="44.9492817" lon="7.272555"><ele>1133.5</ele><time>2026-03-29T10:41:12.953Z</time></trkpt><trkpt lat="44.9493567" lon="7.2725567"><ele>1133.6666666666667</ele><time>2026-03-29T10:41:13.953Z</time></trkpt><trkpt lat="44.949435" lon="7.2725567"><ele>1133.8333333333333</ele><time>2026-03-29T10:41:14.953Z</time></trkpt><trkpt lat="44.9495167" lon="7.2725617"><ele>1134.0</ele><time>2026-03-29T10:41:15.953Z</time></trkpt><trkpt lat="44.9495983" lon="7.2725583"><ele>1133.1666666666667</ele><time>2026-03-29T10:41:16.953Z</time></trkpt><trkpt lat="44.9496833" lon="7.2725533"><ele>1132.3333333333333</ele><time>2026-03-29T10:41:17.953Z</time></trkpt><trkpt lat="44.9497633" lon="7.272545"><ele>1131.5</ele><time>2026-03-29T10:41:18.953Z</time></trkpt><trkpt lat="44.94985" lon="7.2725333"><ele>1130.6666666666665</ele><time>2026-03-29T10:41:19.953Z</time></trkpt><trkpt lat="44.9499467" lon="7.2725217"><ele>1129.8333333333333</ele><time>2026-03-29T10:41:20.953Z</time></trkpt><trkpt lat="44.9500433" lon="7.2725183"><ele>1129.0</ele><time>2026-03-29T10:41:21.953Z</time></trkpt><trkpt lat="44.950135" lon="7.2725167"><ele>1127.6666666666665</ele><time>2026-03-29T10:41:22.953Z</time></trkpt><trkpt lat="44.95022" lon="7.2725233"><ele>1126.3333333333333</ele><time>2026-03-29T10:41:23.953Z</time></trkpt><trkpt lat="44.9503033" lon="7.27253"><ele>1125.0</ele><time>2026-03-29T10:41:24.953Z</time></trkpt><trkpt lat="44.95039" lon="7.272535"><ele>1123.6666666666667</ele><time>2026-03-29T10:41:25.953Z</time></trkpt><trkpt lat="44.9504667" lon="7.2725433"><ele>1122.3333333333335</ele><time>2026-03-29T10:41:26.953Z</time></trkpt><trkpt lat="44.9505367" lon="7.27255"><ele>1121.0</ele><time>2026-03-29T10:41:27.953Z</time></trkpt><trkpt lat="44.95063" lon="7.2725983"><ele>1121.0</ele><time>2026-03-29T10:41:29.954Z</time></trkpt><trkpt lat="44.9506933" lon="7.2726467"><ele>1121.0</ele><time>2026-03-29T10:41:30.954Z</time></trkpt><trkpt lat="44.9507717" lon="7.2727183"><ele>1121.0</ele><time>2026-03-29T10:41:31.954Z</time></trkpt><trkpt lat="44.95085" lon="7.2727967"><ele>1121.0</ele><time>2026-03-29T10:41:32.953Z</time></trkpt><trkpt lat="44.9509217" lon="7.2728717"><ele>1121.0</ele><time>2026-03-29T10:41:33.954Z</time></trkpt><trkpt lat="44.9509967" lon="7.27295"><ele>1121.0</ele><time>2026-03-29T10:41:34.954Z</time></trkpt><trkpt lat="44.9510633" lon="7.2730117"><ele>1122.0</ele><time>2026-03-29T10:41:35.954Z</time></trkpt><trkpt lat="44.9511317" lon="7.2730883"><ele>1123.0</ele><time>2026-03-29T10:41:36.953Z</time></trkpt><trkpt lat="44.9512017" lon="7.27317"><ele>1124.0</ele><time>2026-03-29T10:41:37.954Z</time></trkpt><trkpt lat="44.951275" lon="7.27325"><ele>1125.0</ele><time>2026-03-29T10:41:38.954Z</time></trkpt><trkpt lat="44.9513467" lon="7.2733267"><ele>1126.0</ele><time>2026-03-29T10:41:39.954Z</time></trkpt><trkpt lat="44.9514217" lon="7.2734167"><ele>1126.8</ele><time>2026-03-29T10:41:40.954Z</time></trkpt><trkpt lat="44.9514733" lon="7.27348"><ele>1127.6</ele><time>2026-03-29T10:41:41.954Z</time></trkpt><trkpt lat="44.9515567" lon="7.2734967"><ele>1128.4</ele><time>2026-03-29T10:41:43.954Z</time></trkpt><trkpt lat="44.9516667" lon="7.27339"><ele>1129.2</ele><time>2026-03-29T10:41:45.954Z</time></trkpt><trkpt lat="44.9517217" lon="7.2732983"><ele>1130.0</ele><time>2026-03-29T10:41:46.954Z</time></trkpt><trkpt lat="44.9517817" lon="7.27319"><ele>1132.5</ele><time>2026-03-29T10:41:47.954Z</time></trkpt><trkpt lat="44.95183" lon="7.27308"><ele>1135.0</ele><time>2026-03-29T10:41:48.954Z</time></trkpt><trkpt lat="44.9518783" lon="7.27299"><ele>1137.5</ele><time>2026-03-29T10:41:49.954Z</time></trkpt><trkpt lat="44.9519317" lon="7.2729067"><ele>1140.0</ele><time>2026-03-29T10:41:50.954Z</time></trkpt><trkpt lat="44.95199" lon="7.27285"><ele>1142.5</ele><time>2026-03-29T10:41:51.954Z</time></trkpt><trkpt lat="44.9520633" lon="7.272825"><ele>1145.0</ele><time>2026-03-29T10:41:52.954Z</time></trkpt><trkpt lat="44.952145" lon="7.27282"><ele>1145.0</ele><time>2026-03-29T10:41:53.954Z</time></trkpt><trkpt lat="44.952225" lon="7.272845"><ele>1145.0</ele><time>2026-03-29T10:41:54.954Z</time></trkpt><trkpt lat="44.952325" lon="7.2729217"><ele>1145.0</ele><time>2026-03-29T10:41:55.954Z</time></trkpt><trkpt lat="44.9524333" lon="7.2730233"><ele>1145.0</ele><time>2026-03-29T10:41:56.954Z</time></trkpt><trkpt lat="44.9525533" lon="7.2731733"><ele>1148.0</ele><time>2026-03-29T10:41:57.954Z</time></trkpt><trkpt lat="44.9526633" lon="7.2733183"><ele>1151.0</ele><time>2026-03-29T10:41:58.954Z</time></trkpt><trkpt lat="44.952755" lon="7.273435"><ele>1154.0</ele><time>2026-03-29T10:41:59.954Z</time></trkpt><trkpt lat="44.9528233" lon="7.2735267"><ele>1157.0</ele><time>2026-03-29T10:42:00.954Z</time></trkpt><trkpt lat="44.95289" lon="7.2735917"><ele>1160.0</ele><time>2026-03-29T10:42:01.954Z</time></trkpt><trkpt lat="44.9529583" lon="7.2736233"><ele>1160.0</ele><time>2026-03-29T10:42:02.954Z</time></trkpt><trkpt lat="44.9530367" lon="7.27358"><ele>1160.0</ele><time>2026-03-29T10:42:03.953Z</time></trkpt><trkpt lat="44.9531167" lon="7.2735133"><ele>1160.0</ele><time>2026-03-29T10:42:04.954Z</time></trkpt><trkpt lat="44.9531967" lon="7.2734217"><ele>1160.0</ele><time>2026-03-29T10:42:05.954Z</time></trkpt><trkpt lat="44.9532633" lon="7.2733067"><ele>1160.0</ele><time>2026-03-29T10:42:06.954Z</time></trkpt><trkpt lat="44.95333" lon="7.2731883"><ele>1161.0</ele><time>2026-03-29T10:42:07.954Z</time></trkpt><trkpt lat="44.9533933" lon="7.2730617"><ele>1162.0</ele><time>2026-03-29T10:42:08.954Z</time></trkpt><trkpt lat="44.9534667" lon="7.27297"><ele>1163.0</ele><time>2026-03-29T10:42:09.954Z</time></trkpt><trkpt lat="44.9535433" lon="7.27289"><ele>1164.0</ele><time>2026-03-29T10:42:10.954Z</time></trkpt><trkpt lat="44.95362" lon="7.2728133"><ele>1165.0</ele><time>2026-03-29T10:42:11.954Z</time></trkpt><trkpt lat="44.9537017" lon="7.2727617"><ele>1165.0</ele><time>2026-03-29T10:42:12.953Z</time></trkpt><trkpt lat="44.9537883" lon="7.2727367"><ele>1165.0</ele><time>2026-03-29T10:42:13.954Z</time></trkpt><trkpt lat="44.9538767" lon="7.2727183"><ele>1165.0</ele><time>2026-03-29T10:42:14.954Z</time></trkpt><trkpt lat="44.9539733" lon="7.2727017"><ele>1165.0</ele><time>2026-03-29T10:42:15.954Z</time></trkpt><trkpt lat="44.9540667" lon="7.2726817"><ele>1165.0</ele><time>2026-03-29T10:42:16.954Z</time></trkpt><trkpt lat="44.9541483" lon="7.2726567"><ele>1165.8333333333333</ele><time>2026-03-29T10:42:17.954Z</time></trkpt><trkpt lat="44.9542367" lon="7.2726417"><ele>1166.6666666666665</ele><time>2026-03-29T10:42:18.954Z</time></trkpt><trkpt lat="44.9543217" lon="7.2726283"><ele>1167.5</ele><time>2026-03-29T10:42:19.954Z</time></trkpt><trkpt lat="44.9544033" lon="7.272625"><ele>1168.3333333333333</ele><time>2026-03-29T10:42:20.954Z</time></trkpt><trkpt lat="44.9544933" lon="7.2726317"><ele>1169.1666666666667</ele><time>2026-03-29T10:42:21.954Z</time></trkpt><trkpt lat="44.9545683" lon="7.2726317"><ele>1170.0</ele><time>2026-03-29T10:42:22.954Z</time></trkpt><trkpt lat="44.9546783" lon="7.2726633"><ele>1170.0</ele><time>2026-03-29T10:42:24.954Z</time></trkpt><trkpt lat="44.95474" lon="7.272705"><ele>1170.0</ele><time>2026-03-29T10:42:25.954Z</time></trkpt><trkpt lat="44.9548133" lon="7.27275"><ele>1170.0</ele><time>2026-03-29T10:42:26.954Z</time></trkpt><trkpt lat="44.9548967" lon="7.2727967"><ele>1170.0</ele><time>2026-03-29T10:42:27.954Z</time></trkpt><trkpt lat="44.9549883" lon="7.2728517"><ele>1170.0</ele><time>2026-03-29T10:42:28.954Z</time></trkpt><trkpt lat="44.9550917" lon="7.2729083"><ele>1170.0</ele><time>2026-03-29T10:42:29.954Z</time></trkpt><trkpt lat="44.9551983" lon="7.2729783"><ele>1172.75</ele><time>2026-03-29T10:42:30.954Z</time></trkpt><trkpt lat="44.9553033" lon="7.2730567"><ele>1175.5</ele><time>2026-03-29T10:42:31.954Z</time></trkpt><trkpt lat="44.9553933" lon="7.2731517"><ele>1178.25</ele><time>2026-03-29T10:42:32.954Z</time></trkpt><trkpt lat="44.955485" lon="7.2732717"><ele>1181.0</ele><time>2026-03-29T10:42:33.954Z</time></trkpt><trkpt lat="44.9555567" lon="7.2733683"><ele>1181.5</ele><time>2026-03-29T10:42:34.954Z</time></trkpt><trkpt lat="44.9556267" lon="7.2734567"><ele>1182.0</ele><time>2026-03-29T10:42:35.954Z</time></trkpt><trkpt lat="44.9556917" lon="7.2735183"><ele>1182.5</ele><time>2026-03-29T10:42:36.954Z</time></trkpt><trkpt lat="44.9557617" lon="7.2735617"><ele>1183.0</ele><time>2026-03-29T10:42:37.954Z</time></trkpt><trkpt lat="44.9558517" lon="7.2735867"><ele>1183.5</ele><time>2026-03-29T10:42:38.954Z</time></trkpt><trkpt lat="44.9559367" lon="7.2736167"><ele>1184.0</ele><time>2026-03-29T10:42:39.953Z</time></trkpt><trkpt lat="44.9560167" lon="7.273635"><ele>1181.5</ele><time>2026-03-29T10:42:40.954Z</time></trkpt><trkpt lat="44.956085" lon="7.2736633"><ele>1179.0</ele><time>2026-03-29T10:42:41.954Z</time></trkpt><trkpt lat="44.9561483" lon="7.2737083"><ele>1176.5</ele><time>2026-03-29T10:42:42.954Z</time></trkpt><trkpt lat="44.956205" lon="7.2737833"><ele>1174.0</ele><time>2026-03-29T10:42:43.954Z</time></trkpt><trkpt lat="44.956255" lon="7.273885"><ele>1171.5</ele><time>2026-03-29T10:42:44.954Z</time></trkpt><trkpt lat="44.9563" lon="7.2740067"><ele>1169.0</ele><time>2026-03-29T10:42:45.954Z</time></trkpt><trkpt lat="44.9563317" lon="7.274135"><ele>1168.8</ele><time>2026-03-29T10:42:46.954Z</time></trkpt><trkpt lat="44.9563567" lon="7.2742717"><ele>1168.6000000000001</ele><time>2026-03-29T10:42:47.954Z</time></trkpt><trkpt lat="44.9563867" lon="7.2744167"><ele>1168.4</ele><time>2026-03-29T10:42:48.953Z</time></trkpt><trkpt lat="44.9564117" lon="7.2745533"><ele>1168.2</ele><time>2026-03-29T10:42:49.954Z</time></trkpt><trkpt lat="44.9564383" lon="7.274695"><ele>1168.0</ele><time>2026-03-29T10:42:50.954Z</time></trkpt><trkpt lat="44.9564767" lon="7.2748283"><ele>1168.0</ele><time>2026-03-29T10:42:51.954Z</time></trkpt><trkpt lat="44.9565033" lon="7.2749583"><ele>1168.0</ele><time>2026-03-29T10:42:52.954Z</time></trkpt><trkpt lat="44.9565333" lon="7.2750917"><ele>1168.0</ele><time>2026-03-29T10:42:53.953Z</time></trkpt><trkpt lat="44.95657" lon="7.2752317"><ele>1168.0</ele><time>2026-03-29T10:42:54.954Z</time></trkpt><trkpt lat="44.956595" lon="7.275365"><ele>1168.0</ele><time>2026-03-29T10:42:55.954Z</time></trkpt><trkpt lat="44.9566117" lon="7.2754933"><ele>1168.8333333333333</ele><time>2026-03-29T10:42:56.954Z</time></trkpt><trkpt lat="44.9566367" lon="7.2756117"><ele>1169.6666666666665</ele><time>2026-03-29T10:42:57.954Z</time></trkpt><trkpt lat="44.9566733" lon="7.2757183"><ele>1170.5</ele><time>2026-03-29T10:42:58.953Z</time></trkpt><trkpt lat="44.95672" lon="7.2758033"><ele>1171.3333333333333</ele><time>2026-03-29T10:42:59.954Z</time></trkpt><trkpt lat="44.95679" lon="7.27588"><ele>1172.1666666666667</ele><time>2026-03-29T10:43:00.954Z</time></trkpt><trkpt lat="44.956885" lon="7.2759483"><ele>1173.0</ele><time>2026-03-29T10:43:01.954Z</time></trkpt><trkpt lat="44.9569933" lon="7.276015"><ele>1169.6</ele><time>2026-03-29T10:43:02.954Z</time></trkpt><trkpt lat="44.957105" lon="7.27608"><ele>1166.1999999999998</ele><time>2026-03-29T10:43:03.954Z</time></trkpt><trkpt lat="44.9572083" lon="7.2761517"><ele>1162.8</ele><time>2026-03-29T10:43:04.954Z</time></trkpt><trkpt lat="44.9572983" lon="7.2762233"><ele>1159.3999999999999</ele><time>2026-03-29T10:43:05.953Z</time></trkpt><trkpt lat="44.95738" lon="7.276295"><ele>1156.0</ele><time>2026-03-29T10:43:06.954Z</time></trkpt><trkpt lat="44.95746" lon="7.27637"><ele>1155.2</ele><time>2026-03-29T10:43:07.954Z</time></trkpt><trkpt lat="44.957535" lon="7.2764583"><ele>1154.3999999999999</ele><time>2026-03-29T10:43:08.954Z</time></trkpt><trkpt lat="44.9575983" lon="7.2765767"><ele>1153.6</ele><time>2026-03-29T10:43:09.953Z</time></trkpt><trkpt lat="44.9576383" lon="7.27669"><ele>1152.8</ele><time>2026-03-29T10:43:10.954Z</time></trkpt><trkpt lat="44.9576783" lon="7.2768083"><ele>1152.0</ele><time>2026-03-29T10:43:11.954Z</time></trkpt><trkpt lat="44.9577283" lon="7.2768983"><ele>1152.0</ele><time>2026-03-29T10:43:12.954Z</time></trkpt><trkpt lat="44.9577817" lon="7.2769617"><ele>1152.0</ele><time>2026-03-29T10:43:13.954Z</time></trkpt><trkpt lat="44.9578483" lon="7.2770117"><ele>1152.0</ele><time>2026-03-29T10:43:14.954Z</time></trkpt><trkpt lat="44.9579267" lon="7.2770483"><ele>1152.0</ele><time>2026-03-29T10:43:15.954Z</time></trkpt><trkpt lat="44.95801" lon="7.2770567"><ele>1152.0</ele><time>2026-03-29T10:43:16.954Z</time></trkpt><trkpt lat="44.95811" lon="7.2770533"><ele>1152.0</ele><time>2026-03-29T10:43:17.954Z</time></trkpt><trkpt lat="44.9582067" lon="7.2770267"><ele>1152.0</ele><time>2026-03-29T10:43:18.954Z</time></trkpt><trkpt lat="44.958295" lon="7.2769883"><ele>1152.0</ele><time>2026-03-29T10:43:19.954Z</time></trkpt><trkpt lat="44.9583817" lon="7.2769383"><ele>1152.0</ele><time>2026-03-29T10:43:20.954Z</time></trkpt><trkpt lat="44.9584583" lon="7.2768833"><ele>1152.0</ele><time>2026-03-29T10:43:21.954Z</time></trkpt><trkpt lat="44.95854" lon="7.2768217"><ele>1152.0</ele><time>2026-03-29T10:43:22.954Z</time></trkpt><trkpt lat="44.9586283" lon="7.2767433"><ele>1153.8333333333333</ele><time>2026-03-29T10:43:23.954Z</time></trkpt><trkpt lat="44.9587117" lon="7.27668"><ele>1155.6666666666667</ele><time>2026-03-29T10:43:24.953Z</time></trkpt><trkpt lat="44.9587883" lon="7.2766367"><ele>1157.5</ele><time>2026-03-29T10:43:25.954Z</time></trkpt><trkpt lat="44.958865" lon="7.2766267"><ele>1159.3333333333335</ele><time>2026-03-29T10:43:26.954Z</time></trkpt><trkpt lat="44.95894" lon="7.27663"><ele>1161.1666666666667</ele><time>2026-03-29T10:43:27.954Z</time></trkpt><trkpt lat="44.9590217" lon="7.276655"><ele>1163.0</ele><time>2026-03-29T10:43:28.954Z</time></trkpt><trkpt lat="44.95911" lon="7.2767017"><ele>1163.0</ele><time>2026-03-29T10:43:29.954Z</time></trkpt><trkpt lat="44.9591917" lon="7.2767733"><ele>1163.0</ele><time>2026-03-29T10:43:30.954Z</time></trkpt><trkpt lat="44.9592683" lon="7.2768583"><ele>1163.0</ele><time>2026-03-29T10:43:31.954Z</time></trkpt><trkpt lat="44.9593467" lon="7.2769233"><ele>1163.0</ele><time>2026-03-29T10:43:32.954Z</time></trkpt><trkpt lat="44.9594383" lon="7.2769883"><ele>1163.0</ele><time>2026-03-29T10:43:33.954Z</time></trkpt><trkpt lat="44.9595367" lon="7.2770433"><ele>1163.4</ele><time>2026-03-29T10:43:34.954Z</time></trkpt><trkpt lat="44.9596383" lon="7.2771"><ele>1163.8</ele><time>2026-03-29T10:43:35.954Z</time></trkpt><trkpt lat="44.959745" lon="7.2771533"><ele>1164.2</ele><time>2026-03-29T10:43:36.953Z</time></trkpt><trkpt lat="44.959855" lon="7.2772117"><ele>1164.6</ele><time>2026-03-29T10:43:37.954Z</time></trkpt><trkpt lat="44.959955" lon="7.27727"><ele>1165.0</ele><time>2026-03-29T10:43:38.954Z</time></trkpt><trkpt lat="44.9600567" lon="7.2772967"><ele>1165.0</ele><time>2026-03-29T10:43:39.954Z</time></trkpt><trkpt lat="44.960155" lon="7.277305"><ele>1165.0</ele><time>2026-03-29T10:43:40.954Z</time></trkpt><trkpt lat="44.9602567" lon="7.2773083"><ele>1165.0</ele><time>2026-03-29T10:43:41.954Z</time></trkpt><trkpt lat="44.960355" lon="7.277305"><ele>1165.0</ele><time>2026-03-29T10:43:42.954Z</time></trkpt><trkpt lat="44.960455" lon="7.2772983"><ele>1165.0</ele><time>2026-03-29T10:43:43.954Z</time></trkpt><trkpt lat="44.960545" lon="7.2773083"><ele>1165.0</ele><time>2026-03-29T10:43:44.954Z</time></trkpt><trkpt lat="44.9606333" lon="7.27733"><ele>1165.0</ele><time>2026-03-29T10:43:45.954Z</time></trkpt><trkpt lat="44.9607083" lon="7.27737"><ele>1165.0</ele><time>2026-03-29T10:43:46.954Z</time></trkpt><trkpt lat="44.96077" lon="7.2774067"><ele>1165.0</ele><time>2026-03-29T10:43:47.954Z</time></trkpt><trkpt lat="44.96083" lon="7.27744"><ele>1165.0</ele><time>2026-03-29T10:43:48.954Z</time></trkpt><trkpt lat="44.960945" lon="7.2774883"><ele>1165.0</ele><time>2026-03-29T10:43:50.954Z</time></trkpt><trkpt lat="44.961045" lon="7.2775317"><ele>1163.142857142857</ele><time>2026-03-29T10:43:52.954Z</time></trkpt><trkpt lat="44.9611067" lon="7.277555"><ele>1161.2857142857142</ele><time>2026-03-29T10:43:53.954Z</time></trkpt><trkpt lat="44.9611717" lon="7.2775917"><ele>1159.4285714285716</ele><time>2026-03-29T10:43:54.954Z</time></trkpt><trkpt lat="44.9612267" lon="7.2776517"><ele>1157.5714285714284</ele><time>2026-03-29T10:43:55.954Z</time></trkpt><trkpt lat="44.9612767" lon="7.2777283"><ele>1155.7142857142858</ele><time>2026-03-29T10:43:56.954Z</time></trkpt><trkpt lat="44.96131" lon="7.2778083"><ele>1153.857142857143</ele><time>2026-03-29T10:43:57.954Z</time></trkpt><trkpt lat="44.96134" lon="7.277895"><ele>1152.0</ele><time>2026-03-29T10:43:58.954Z</time></trkpt><trkpt lat="44.9613717" lon="7.277985"><ele>1152.0</ele><time>2026-03-29T10:43:59.954Z</time></trkpt><trkpt lat="44.9614" lon="7.27807"><ele>1152.0</ele><time>2026-03-29T10:44:00.954Z</time></trkpt><trkpt lat="44.961425" lon="7.2782317"><ele>1152.0</ele><time>2026-03-29T10:44:02.954Z</time></trkpt><trkpt lat="44.9614117" lon="7.278395"><ele>1152.0</ele><time>2026-03-29T10:44:04.954Z</time></trkpt><trkpt lat="44.96145" lon="7.2785683"><ele>1152.0</ele><time>2026-03-29T10:44:06.954Z</time></trkpt><trkpt lat="44.961495" lon="7.278655"><ele>1152.8</ele><time>2026-03-29T10:44:07.954Z</time></trkpt><trkpt lat="44.9615417" lon="7.2787583"><ele>1153.6</ele><time>2026-03-29T10:44:08.954Z</time></trkpt><trkpt lat="44.9615967" lon="7.2788783"><ele>1154.3999999999999</ele><time>2026-03-29T10:44:09.954Z</time></trkpt><trkpt lat="44.96165" lon="7.279005"><ele>1155.2</ele><time>2026-03-29T10:44:10.954Z</time></trkpt><trkpt lat="44.9617017" lon="7.2791317"><ele>1156.0</ele><time>2026-03-29T10:44:11.954Z</time></trkpt><trkpt lat="44.961745" lon="7.279245"><ele>1156.0</ele><time>2026-03-29T10:44:12.954Z</time></trkpt><trkpt lat="44.9617817" lon="7.279355"><ele>1156.0</ele><time>2026-03-29T10:44:13.954Z</time></trkpt><trkpt lat="44.96182" lon="7.2794433"><ele>1156.0</ele><time>2026-03-29T10:44:14.954Z</time></trkpt><trkpt lat="44.9618883" lon="7.2795567"><ele>1156.0</ele><time>2026-03-29T10:44:16.954Z</time></trkpt><trkpt lat="44.96197" lon="7.2795367"><ele>1156.0</ele><time>2026-03-29T10:44:18.954Z</time></trkpt><trkpt lat="44.9620067" lon="7.279435"><ele>1156.0</ele><time>2026-03-29T10:44:20.954Z</time></trkpt><trkpt lat="44.961985" lon="7.2793417"><ele>1156.0</ele><time>2026-03-29T10:44:22.954Z</time></trkpt><trkpt lat="44.9619917" lon="7.2792517"><ele>1156.0</ele><time>2026-03-29T10:44:25.954Z</time></trkpt><trkpt lat="44.9620717" lon="7.2792833"><ele>1156.0</ele><time>2026-03-29T10:44:28.954Z</time></trkpt></trkseg></trk></gpx>